sensor_id;sensor_type;location;lat;lon;timestamp;P1;durP1;ratioP1;P2;durP2;ratioP2
12224;SDS011;6175;50.956;11.064;2023-04-03T00:00:10;2.97;;;1.70;;
12224;SDS011;6175;50.956;11.064;2023-04-03T00:02:38;3.60;;;1.70;;
12224;SDS011;6175;50.956;11.064;2023-04-03T00:05:06;3.10;;;1.60;;
12224;SDS011;6175;50.956;11.064;2023-04-03T00:07:33;5.10;;;2.47;;
12224;SDS011;6175;50.956;11.064;2023-04-03T00:10:02;2.47;;;1.80;;
12224;SDS011;6175;50.956;11.064;2023-04-03T00:12:29;2.97;;;1.70;;
12224;SDS011;6175;50.956;11.064;2023-04-03T00:14:57;3.10;;;1.63;;
12224;SDS011;6175;50.956;11.064;2023-04-03T00:17:23;3.83;;;2.00;;
12224;SDS011;6175;50.956;11.064;2023-04-03T00:19:51;3.17;;;1.67;;
12224;SDS011;6175;50.956;11.064;2023-04-03T00:22:18;5.00;;;1.97;;
12224;SDS011;6175;50.956;11.064;2023-04-03T00:24:45;2.90;;;1.50;;
12224;SDS011;6175;50.956;11.064;2023-04-03T00:27:13;4.07;;;2.10;;
12224;SDS011;6175;50.956;11.064;2023-04-03T00:29:40;2.23;;;1.90;;
12224;SDS011;6175;50.956;11.064;2023-04-03T00:32:07;3.07;;;1.70;;
12224;SDS011;6175;50.956;11.064;2023-04-03T00:34:35;4.93;;;2.03;;
12224;SDS011;6175;50.956;11.064;2023-04-03T00:37:02;3.07;;;1.53;;
12224;SDS011;6175;50.956;11.064;2023-04-03T00:39:29;3.05;;;1.70;;
12224;SDS011;6175;50.956;11.064;2023-04-03T00:41:57;2.80;;;1.90;;
12224;SDS011;6175;50.956;11.064;2023-04-03T00:47:27;4.50;;;1.80;;
12224;SDS011;6175;50.956;11.064;2023-04-03T00:49:54;2.50;;;2.00;;
12224;SDS011;6175;50.956;11.064;2023-04-03T00:52:23;4.97;;;1.80;;
12224;SDS011;6175;50.956;11.064;2023-04-03T00:54:54;2.60;;;1.50;;
12224;SDS011;6175;50.956;11.064;2023-04-03T00:57:26;3.57;;;1.80;;
12224;SDS011;6175;50.956;11.064;2023-04-03T00:59:54;2.60;;;1.47;;
12224;SDS011;6175;50.956;11.064;2023-04-03T01:02:27;2.83;;;2.00;;
12224;SDS011;6175;50.956;11.064;2023-04-03T01:04:54;2.42;;;1.40;;
12224;SDS011;6175;50.956;11.064;2023-04-03T01:07:22;4.40;;;1.63;;
12224;SDS011;6175;50.956;11.064;2023-04-03T01:09:52;3.10;;;1.63;;
12224;SDS011;6175;50.956;11.064;2023-04-03T01:12:23;4.65;;;2.35;;
12224;SDS011;6175;50.956;11.064;2023-04-03T01:14:52;3.63;;;1.58;;
12224;SDS011;6175;50.956;11.064;2023-04-03T01:17:31;1.50;;;1.40;;
12224;SDS011;6175;50.956;11.064;2023-04-03T01:23:06;2.53;;;2.00;;
12224;SDS011;6175;50.956;11.064;2023-04-03T01:25:46;3.85;;;2.17;;
12224;SDS011;6175;50.956;11.064;2023-04-03T01:28:16;7.10;;;2.67;;
12224;SDS011;6175;50.956;11.064;2023-04-03T01:30:46;6.07;;;2.47;;
12224;SDS011;6175;50.956;11.064;2023-04-03T01:33:18;2.72;;;2.00;;
12224;SDS011;6175;50.956;11.064;2023-04-03T01:35:45;3.72;;;2.38;;
12224;SDS011;6175;50.956;11.064;2023-04-03T01:38:12;3.80;;;2.20;;
12224;SDS011;6175;50.956;11.064;2023-04-03T01:40:40;3.20;;;2.30;;
12224;SDS011;6175;50.956;11.064;2023-04-03T01:43:07;2.97;;;2.20;;
12224;SDS011;6175;50.956;11.064;2023-04-03T01:45:34;4.13;;;2.67;;
12224;SDS011;6175;50.956;11.064;2023-04-03T01:48:01;3.50;;;2.20;;
12224;SDS011;6175;50.956;11.064;2023-04-03T01:50:30;3.73;;;1.80;;
12224;SDS011;6175;50.956;11.064;2023-04-03T01:52:58;2.73;;;2.00;;
12224;SDS011;6175;50.956;11.064;2023-04-03T01:55:25;3.83;;;2.07;;
12224;SDS011;6175;50.956;11.064;2023-04-03T01:57:52;5.93;;;2.63;;
12224;SDS011;6175;50.956;11.064;2023-04-03T02:00:19;3.63;;;2.30;;
12224;SDS011;6175;50.956;11.064;2023-04-03T02:02:46;4.33;;;2.30;;
12224;SDS011;6175;50.956;11.064;2023-04-03T02:05:13;4.47;;;2.17;;
12224;SDS011;6175;50.956;11.064;2023-04-03T02:07:42;2.97;;;2.27;;
12224;SDS011;6175;50.956;11.064;2023-04-03T02:10:09;3.20;;;2.00;;
12224;SDS011;6175;50.956;11.064;2023-04-03T02:12:36;4.30;;;2.40;;
12224;SDS011;6175;50.956;11.064;2023-04-03T02:15:04;6.43;;;2.63;;
12224;SDS011;6175;50.956;11.064;2023-04-03T02:17:31;6.90;;;2.67;;
12224;SDS011;6175;50.956;11.064;2023-04-03T02:19:58;5.43;;;2.47;;
12224;SDS011;6175;50.956;11.064;2023-04-03T02:22:25;5.60;;;2.70;;
12224;SDS011;6175;50.956;11.064;2023-04-03T02:24:54;3.03;;;2.40;;
12224;SDS011;6175;50.956;11.064;2023-04-03T02:27:21;3.80;;;2.03;;
12224;SDS011;6175;50.956;11.064;2023-04-03T02:29:48;4.37;;;2.43;;
12224;SDS011;6175;50.956;11.064;2023-04-03T02:32:15;6.20;;;2.47;;
12224;SDS011;6175;50.956;11.064;2023-04-03T02:34:42;5.17;;;2.30;;
12224;SDS011;6175;50.956;11.064;2023-04-03T02:37:09;4.13;;;2.40;;
12224;SDS011;6175;50.956;11.064;2023-04-03T02:39:36;6.23;;;2.40;;
12224;SDS011;6175;50.956;11.064;2023-04-03T02:42:05;5.27;;;2.40;;
12224;SDS011;6175;50.956;11.064;2023-04-03T02:44:32;6.73;;;2.20;;
12224;SDS011;6175;50.956;11.064;2023-04-03T02:47:00;3.50;;;2.17;;
12224;SDS011;6175;50.956;11.064;2023-04-03T02:49:28;3.95;;;2.40;;
12224;SDS011;6175;50.956;11.064;2023-04-03T02:51:55;5.57;;;2.50;;
12224;SDS011;6175;50.956;11.064;2023-04-03T02:54:22;5.40;;;2.33;;
12224;SDS011;6175;50.956;11.064;2023-04-03T02:56:52;3.40;;;2.40;;
12224;SDS011;6175;50.956;11.064;2023-04-03T02:59:21;7.63;;;2.63;;
12224;SDS011;6175;50.956;11.064;2023-04-03T03:01:49;3.70;;;2.43;;
12224;SDS011;6175;50.956;11.064;2023-04-03T03:04:16;6.53;;;2.40;;
12224;SDS011;6175;50.956;11.064;2023-04-03T03:06:43;4.70;;;2.70;;
12224;SDS011;6175;50.956;11.064;2023-04-03T03:09:11;6.43;;;2.53;;
12224;SDS011;6175;50.956;11.064;2023-04-03T03:11:38;6.60;;;2.73;;
12224;SDS011;6175;50.956;11.064;2023-04-03T03:14:05;5.30;;;3.07;;
12224;SDS011;6175;50.956;11.064;2023-04-03T03:16:34;3.67;;;2.80;;
12224;SDS011;6175;50.956;11.064;2023-04-03T03:19:01;2.80;;;2.50;;
12224;SDS011;6175;50.956;11.064;2023-04-03T03:21:28;5.05;;;2.63;;
12224;SDS011;6175;50.956;11.064;2023-04-03T03:23:55;4.17;;;3.03;;
12224;SDS011;6175;50.956;11.064;2023-04-03T03:26:22;3.70;;;2.63;;
12224;SDS011;6175;50.956;11.064;2023-04-03T03:28:50;3.63;;;2.83;;
12224;SDS011;6175;50.956;11.064;2023-04-03T03:31:17;3.70;;;2.83;;
12224;SDS011;6175;50.956;11.064;2023-04-03T03:33:45;6.33;;;2.70;;
12224;SDS011;6175;50.956;11.064;2023-04-03T03:36:12;4.60;;;3.07;;
12224;SDS011;6175;50.956;11.064;2023-04-03T03:38:40;4.90;;;2.80;;
12224;SDS011;6175;50.956;11.064;2023-04-03T03:41:07;4.03;;;2.97;;
12224;SDS011;6175;50.956;11.064;2023-04-03T03:43:34;6.87;;;3.43;;
12224;SDS011;6175;50.956;11.064;2023-04-03T03:46:01;5.27;;;3.30;;
12224;SDS011;6175;50.956;11.064;2023-04-03T03:48:28;3.77;;;2.83;;
12224;SDS011;6175;50.956;11.064;2023-04-03T03:50:57;3.60;;;2.93;;
12224;SDS011;6175;50.956;11.064;2023-04-03T03:53:24;5.60;;;2.93;;
12224;SDS011;6175;50.956;11.064;2023-04-03T03:55:51;4.73;;;3.53;;
12224;SDS011;6175;50.956;11.064;2023-04-03T03:58:18;3.13;;;2.83;;
12224;SDS011;6175;50.956;11.064;2023-04-03T04:00:46;6.70;;;3.17;;
12224;SDS011;6175;50.956;11.064;2023-04-03T04:03:13;2.87;;;2.57;;
12224;SDS011;6175;50.956;11.064;2023-04-03T04:05:40;5.20;;;3.13;;
12224;SDS011;6175;50.956;11.064;2023-04-03T04:08:09;6.17;;;3.53;;
12224;SDS011;6175;50.956;11.064;2023-04-03T04:10:36;5.10;;;3.67;;
12224;SDS011;6175;50.956;11.064;2023-04-03T04:13:04;3.20;;;2.67;;
12224;SDS011;6175;50.956;11.064;2023-04-03T04:15:31;5.67;;;3.33;;
12224;SDS011;6175;50.956;11.064;2023-04-03T04:17:58;6.40;;;3.20;;
12224;SDS011;6175;50.956;11.064;2023-04-03T04:20:25;5.13;;;3.73;;
12224;SDS011;6175;50.956;11.064;2023-04-03T04:22:52;6.73;;;3.50;;
12224;SDS011;6175;50.956;11.064;2023-04-03T04:25:21;4.77;;;3.30;;
12224;SDS011;6175;50.956;11.064;2023-04-03T04:27:48;4.00;;;3.10;;
12224;SDS011;6175;50.956;11.064;2023-04-03T04:30:16;5.63;;;3.10;;
12224;SDS011;6175;50.956;11.064;2023-04-03T04:32:43;4.10;;;3.00;;
12224;SDS011;6175;50.956;11.064;2023-04-03T04:35:10;6.97;;;3.40;;
12224;SDS011;6175;50.956;11.064;2023-04-03T04:37:37;6.80;;;4.07;;
12224;SDS011;6175;50.956;11.064;2023-04-03T04:40:05;5.63;;;3.90;;
12224;SDS011;6175;50.956;11.064;2023-04-03T04:42:34;3.97;;;3.37;;
12224;SDS011;6175;50.956;11.064;2023-04-03T04:45:01;5.30;;;3.77;;
12224;SDS011;6175;50.956;11.064;2023-04-03T04:47:29;4.43;;;3.77;;
12224;SDS011;6175;50.956;11.064;2023-04-03T04:49:56;4.13;;;3.60;;
12224;SDS011;6175;50.956;11.064;2023-04-03T04:52:23;7.20;;;3.93;;
12224;SDS011;6175;50.956;11.064;2023-04-03T04:54:51;7.83;;;4.03;;
12224;SDS011;6175;50.956;11.064;2023-04-03T04:57:18;7.07;;;4.10;;
12224;SDS011;6175;50.956;11.064;2023-04-03T04:59:46;5.57;;;4.33;;
12224;SDS011;6175;50.956;11.064;2023-04-03T05:02:13;4.90;;;4.40;;
12224;SDS011;6175;50.956;11.064;2023-04-03T05:04:40;7.37;;;5.00;;
12224;SDS011;6175;50.956;11.064;2023-04-03T05:07:08;7.00;;;4.70;;
12224;SDS011;6175;50.956;11.064;2023-04-03T05:09:35;4.30;;;3.90;;
12224;SDS011;6175;50.956;11.064;2023-04-03T05:12:02;6.47;;;4.60;;
12224;SDS011;6175;50.956;11.064;2023-04-03T05:14:30;6.63;;;3.90;;
12224;SDS011;6175;50.956;11.064;2023-04-03T05:16:58;4.73;;;4.23;;
12224;SDS011;6175;50.956;11.064;2023-04-03T05:19:25;5.23;;;4.13;;
12224;SDS011;6175;50.956;11.064;2023-04-03T05:21:52;7.63;;;4.60;;
12224;SDS011;6175;50.956;11.064;2023-04-03T05:24:20;6.33;;;3.83;;
12224;SDS011;6175;50.956;11.064;2023-04-03T05:26:47;6.40;;;4.20;;
12224;SDS011;6175;50.956;11.064;2023-04-03T05:29:14;5.03;;;3.73;;
12224;SDS011;6175;50.956;11.064;2023-04-03T05:31:41;5.50;;;3.90;;
12224;SDS011;6175;50.956;11.064;2023-04-03T05:34:10;6.77;;;3.80;;
12224;SDS011;6175;50.956;11.064;2023-04-03T05:36:37;5.17;;;4.10;;
12224;SDS011;6175;50.956;11.064;2023-04-03T05:39:04;7.43;;;4.10;;
12224;SDS011;6175;50.956;11.064;2023-04-03T05:41:31;5.93;;;4.13;;
12224;SDS011;6175;50.956;11.064;2023-04-03T05:43:59;5.37;;;3.83;;
12224;SDS011;6175;50.956;11.064;2023-04-03T05:46:26;6.73;;;4.07;;
12224;SDS011;6175;50.956;11.064;2023-04-03T05:48:53;6.17;;;3.83;;
12224;SDS011;6175;50.956;11.064;2023-04-03T05:51:23;4.47;;;3.97;;
12224;SDS011;6175;50.956;11.064;2023-04-03T05:53:52;6.37;;;4.50;;
12224;SDS011;6175;50.956;11.064;2023-04-03T05:56:25;8.13;;;4.53;;
12224;SDS011;6175;50.956;11.064;2023-04-03T05:58:52;5.00;;;4.50;;
12224;SDS011;6175;50.956;11.064;2023-04-03T06:01:20;5.60;;;4.23;;
12224;SDS011;6175;50.956;11.064;2023-04-03T06:03:48;6.87;;;4.10;;
12224;SDS011;6175;50.956;11.064;2023-04-03T06:06:15;6.10;;;4.10;;
12224;SDS011;6175;50.956;11.064;2023-04-03T06:08:44;6.10;;;3.93;;
12224;SDS011;6175;50.956;11.064;2023-04-03T06:11:11;4.97;;;4.17;;
12224;SDS011;6175;50.956;11.064;2023-04-03T06:13:38;7.83;;;4.10;;
12224;SDS011;6175;50.956;11.064;2023-04-03T06:16:05;4.90;;;3.90;;
12224;SDS011;6175;50.956;11.064;2023-04-03T06:18:34;6.83;;;4.17;;
12224;SDS011;6175;50.956;11.064;2023-04-03T06:21:01;4.33;;;3.63;;
12224;SDS011;6175;50.956;11.064;2023-04-03T06:23:29;8.50;;;3.83;;
12224;SDS011;6175;50.956;11.064;2023-04-03T06:25:59;6.40;;;4.00;;
12224;SDS011;6175;50.956;11.064;2023-04-03T06:28:26;6.77;;;4.07;;
12224;SDS011;6175;50.956;11.064;2023-04-03T06:30:53;6.63;;;3.83;;
12224;SDS011;6175;50.956;11.064;2023-04-03T06:33:21;5.30;;;3.90;;
12224;SDS011;6175;50.956;11.064;2023-04-03T06:35:48;8.13;;;4.43;;
12224;SDS011;6175;50.956;11.064;2023-04-03T06:38:15;4.07;;;3.67;;
12224;SDS011;6175;50.956;11.064;2023-04-03T06:40:43;4.57;;;3.50;;
12224;SDS011;6175;50.956;11.064;2023-04-03T06:43:12;4.97;;;3.33;;
12224;SDS011;6175;50.956;11.064;2023-04-03T06:45:39;4.13;;;3.47;;
12224;SDS011;6175;50.956;11.064;2023-04-03T06:48:06;4.23;;;3.27;;
12224;SDS011;6175;50.956;11.064;2023-04-03T06:50:34;6.13;;;3.83;;
12224;SDS011;6175;50.956;11.064;2023-04-03T06:53:01;7.87;;;3.67;;
12224;SDS011;6175;50.956;11.064;2023-04-03T06:55:28;6.18;;;3.60;;
12224;SDS011;6175;50.956;11.064;2023-04-03T06:57:56;3.63;;;3.10;;
12224;SDS011;6175;50.956;11.064;2023-04-03T07:00:26;5.07;;;3.23;;
12224;SDS011;6175;50.956;11.064;2023-04-03T07:02:53;5.80;;;3.43;;
12224;SDS011;6175;50.956;11.064;2023-04-03T07:05:21;3.23;;;2.93;;
12224;SDS011;6175;50.956;11.064;2023-04-03T07:07:49;5.07;;;3.17;;
12224;SDS011;6175;50.956;11.064;2023-04-03T07:10:17;3.93;;;3.17;;
12224;SDS011;6175;50.956;11.064;2023-04-03T07:12:44;4.70;;;3.00;;
12224;SDS011;6175;50.956;11.064;2023-04-03T07:15:11;4.22;;;3.30;;
12224;SDS011;6175;50.956;11.064;2023-04-03T07:17:40;7.80;;;3.97;;
12224;SDS011;6175;50.956;11.064;2023-04-03T07:20:08;8.80;;;4.28;;
12224;SDS011;6175;50.956;11.064;2023-04-03T07:22:35;8.70;;;4.75;;
12224;SDS011;6175;50.956;11.064;2023-04-03T07:25:03;9.40;;;5.32;;
12224;SDS011;6175;50.956;11.064;2023-04-03T07:27:32;11.55;;;5.90;;
12224;SDS011;6175;50.956;11.064;2023-04-03T07:29:59;11.98;;;6.78;;
12224;SDS011;6175;50.956;11.064;2023-04-03T07:32:26;9.73;;;6.40;;
12224;SDS011;6175;50.956;11.064;2023-04-03T07:34:55;9.73;;;5.70;;
12224;SDS011;6175;50.956;11.064;2023-04-03T07:37:22;7.82;;;5.35;;
12224;SDS011;6175;50.956;11.064;2023-04-03T07:39:50;7.40;;;5.10;;
12224;SDS011;6175;50.956;11.064;2023-04-03T07:42:17;6.55;;;4.65;;
12224;SDS011;6175;50.956;11.064;2023-04-03T07:44:44;5.38;;;4.28;;
12224;SDS011;6175;50.956;11.064;2023-04-03T07:47:12;6.60;;;3.78;;
12224;SDS011;6175;50.956;11.064;2023-04-03T07:49:41;5.78;;;3.47;;
12224;SDS011;6175;50.956;11.064;2023-04-03T07:52:12;5.60;;;3.50;;
12224;SDS011;6175;50.956;11.064;2023-04-03T07:54:40;4.47;;;3.70;;
12224;SDS011;6175;50.956;11.064;2023-04-03T07:57:07;5.28;;;2.88;;
12224;SDS011;6175;50.956;11.064;2023-04-03T07:59:34;4.35;;;3.13;;
12224;SDS011;6175;50.956;11.064;2023-04-03T08:02:01;4.80;;;3.20;;
12224;SDS011;6175;50.956;11.064;2023-04-03T08:04:30;4.93;;;2.88;;
12224;SDS011;6175;50.956;11.064;2023-04-03T08:06:57;5.03;;;3.25;;
12224;SDS011;6175;50.956;11.064;2023-04-03T08:09:25;3.58;;;2.65;;
12224;SDS011;6175;50.956;11.064;2023-04-03T08:11:52;5.70;;;2.53;;
12224;SDS011;6175;50.956;11.064;2023-04-03T08:14:20;4.28;;;2.40;;
12224;SDS011;6175;50.956;11.064;2023-04-03T08:16:47;5.05;;;2.60;;
12224;SDS011;6175;50.956;11.064;2023-04-03T08:19:15;3.70;;;2.17;;
12224;SDS011;6175;50.956;11.064;2023-04-03T08:21:43;2.85;;;2.03;;
12224;SDS011;6175;50.956;11.064;2023-04-03T08:24:10;3.28;;;2.40;;
12224;SDS011;6175;50.956;11.064;2023-04-03T08:26:39;2.83;;;1.90;;
12224;SDS011;6175;50.956;11.064;2023-04-03T08:29:06;2.63;;;1.85;;
12224;SDS011;6175;50.956;11.064;2023-04-03T08:31:33;2.63;;;2.38;;
12224;SDS011;6175;50.956;11.064;2023-04-03T08:34:00;2.42;;;1.85;;
12224;SDS011;6175;50.956;11.064;2023-04-03T08:36:28;2.92;;;1.75;;
12224;SDS011;6175;50.956;11.064;2023-04-03T08:38:55;3.33;;;1.90;;
12224;SDS011;6175;50.956;11.064;2023-04-03T08:41:25;3.85;;;2.00;;
12224;SDS011;6175;50.956;11.064;2023-04-03T08:43:59;4.10;;;1.80;;
12224;SDS011;6175;50.956;11.064;2023-04-03T08:46:36;3.22;;;2.10;;
12224;SDS011;6175;50.956;11.064;2023-04-03T08:49:14;2.55;;;1.83;;
12224;SDS011;6175;50.956;11.064;2023-04-03T08:51:48;4.15;;;1.98;;
12224;SDS011;6175;50.956;11.064;2023-04-03T08:54:20;2.35;;;1.77;;
12224;SDS011;6175;50.956;11.064;2023-04-03T08:56:52;2.42;;;1.88;;
12224;SDS011;6175;50.956;11.064;2023-04-03T08:59:22;1.90;;;1.65;;
12224;SDS011;6175;50.956;11.064;2023-04-03T09:01:53;2.47;;;1.88;;
12224;SDS011;6175;50.956;11.064;2023-04-03T09:04:21;4.20;;;1.85;;
12224;SDS011;6175;50.956;11.064;2023-04-03T09:06:49;2.97;;;1.90;;
12224;SDS011;6175;50.956;11.064;2023-04-03T09:09:24;2.42;;;1.92;;
12224;SDS011;6175;50.956;11.064;2023-04-03T09:12:00;3.70;;;1.73;;
12224;SDS011;6175;50.956;11.064;2023-04-03T09:14:38;5.63;;;1.60;;
12224;SDS011;6175;50.956;11.064;2023-04-03T09:17:09;2.50;;;1.35;;
12224;SDS011;6175;50.956;11.064;2023-04-03T09:19:43;2.30;;;1.77;;
12224;SDS011;6175;50.956;11.064;2023-04-03T09:22:17;2.03;;;1.67;;
12224;SDS011;6175;50.956;11.064;2023-04-03T09:24:49;3.30;;;1.58;;
12224;SDS011;6175;50.956;11.064;2023-04-03T09:27:22;1.52;;;1.42;;
12224;SDS011;6175;50.956;11.064;2023-04-03T09:29:52;2.42;;;1.60;;
12224;SDS011;6175;50.956;11.064;2023-04-03T09:32:22;2.88;;;1.92;;
12224;SDS011;6175;50.956;11.064;2023-04-03T09:34:52;3.47;;;1.80;;
12224;SDS011;6175;50.956;11.064;2023-04-03T09:37:34;3.70;;;1.70;;
12224;SDS011;6175;50.956;11.064;2023-04-03T09:40:05;3.10;;;1.73;;
12224;SDS011;6175;50.956;11.064;2023-04-03T09:42:34;1.50;;;1.40;;
12224;SDS011;6175;50.956;11.064;2023-04-03T09:45:21;2.92;;;1.88;;
12224;SDS011;6175;50.956;11.064;2023-04-03T09:47:49;1.52;;;1.42;;
12224;SDS011;6175;50.956;11.064;2023-04-03T09:50:31;2.40;;;1.63;;
12224;SDS011;6175;50.956;11.064;2023-04-03T09:52:59;3.05;;;1.70;;
12224;SDS011;6175;50.956;11.064;2023-04-03T09:55:33;1.70;;;1.60;;
12224;SDS011;6175;50.956;11.064;2023-04-03T09:58:22;1.77;;;1.42;;
12224;SDS011;6175;50.956;11.064;2023-04-03T10:00:55;2.05;;;1.50;;
12224;SDS011;6175;50.956;11.064;2023-04-03T10:03:24;2.13;;;1.40;;
12224;SDS011;6175;50.956;11.064;2023-04-03T10:05:54;1.98;;;1.40;;
12224;SDS011;6175;50.956;11.064;2023-04-03T10:08:24;4.90;;;1.55;;
12224;SDS011;6175;50.956;11.064;2023-04-03T10:11:09;3.97;;;1.50;;
12224;SDS011;6175;50.956;11.064;2023-04-03T10:13:51;3.13;;;1.40;;
12224;SDS011;6175;50.956;11.064;2023-04-03T10:16:23;2.65;;;1.67;;
12224;SDS011;6175;50.956;11.064;2023-04-03T10:18:56;2.30;;;1.33;;
12224;SDS011;6175;50.956;11.064;2023-04-03T10:21:44;3.10;;;1.60;;
12224;SDS011;6175;50.956;11.064;2023-04-03T10:24:14;2.65;;;1.70;;
12224;SDS011;6175;50.956;11.064;2023-04-03T10:26:50;2.45;;;1.73;;
12224;SDS011;6175;50.956;11.064;2023-04-03T10:29:33;2.20;;;1.65;;
12224;SDS011;6175;50.956;11.064;2023-04-03T10:35:14;4.47;;;1.60;;
12224;SDS011;6175;50.956;11.064;2023-04-03T10:37:51;2.13;;;1.42;;
12224;SDS011;6175;50.956;11.064;2023-04-03T10:40:29;3.35;;;1.60;;
12224;SDS011;6175;50.956;11.064;2023-04-03T10:43:02;2.75;;;1.65;;
12224;SDS011;6175;50.956;11.064;2023-04-03T10:45:42;2.45;;;1.60;;
12224;SDS011;6175;50.956;11.064;2023-04-03T10:48:20;2.08;;;1.75;;
12224;SDS011;6175;50.956;11.064;2023-04-03T10:50:58;3.28;;;1.95;;
12224;SDS011;6175;50.956;11.064;2023-04-03T10:53:31;3.10;;;1.70;;
12224;SDS011;6175;50.956;11.064;2023-04-03T10:56:06;2.33;;;1.73;;
12224;SDS011;6175;50.956;11.064;2023-04-03T10:58:40;2.03;;;1.70;;
12224;SDS011;6175;50.956;11.064;2023-04-03T11:01:11;3.10;;;1.73;;
12224;SDS011;6175;50.956;11.064;2023-04-03T11:03:44;3.55;;;2.08;;
12224;SDS011;6175;50.956;11.064;2023-04-03T11:06:14;2.20;;;1.90;;
12224;SDS011;6175;50.956;11.064;2023-04-03T11:08:43;3.03;;;2.10;;
12224;SDS011;6175;50.956;11.064;2023-04-03T11:11:14;2.78;;;2.17;;
12224;SDS011;6175;50.956;11.064;2023-04-03T11:13:45;4.13;;;2.15;;
12224;SDS011;6175;50.956;11.064;2023-04-03T11:16:18;3.58;;;1.70;;
12224;SDS011;6175;50.956;11.064;2023-04-03T11:18:54;3.45;;;1.98;;
12224;SDS011;6175;50.956;11.064;2023-04-03T11:21:28;4.25;;;2.17;;
12224;SDS011;6175;50.956;11.064;2023-04-03T11:23:59;3.47;;;2.10;;
12224;SDS011;6175;50.956;11.064;2023-04-03T11:26:29;2.78;;;2.00;;
12224;SDS011;6175;50.956;11.064;2023-04-03T11:29:03;3.97;;;1.70;;
12224;SDS011;6175;50.956;11.064;2023-04-03T11:31:40;1.80;;;1.70;;
12224;SDS011;6175;50.956;11.064;2023-04-03T11:34:23;1.83;;;1.70;;
12224;SDS011;6175;50.956;11.064;2023-04-03T11:36:54;1.65;;;1.55;;
12224;SDS011;6175;50.956;11.064;2023-04-03T11:39:23;2.50;;;1.77;;
12224;SDS011;6175;50.956;11.064;2023-04-03T11:41:52;1.95;;;1.52;;
12224;SDS011;6175;50.956;11.064;2023-04-03T11:44:28;2.20;;;1.70;;
12224;SDS011;6175;50.956;11.064;2023-04-03T11:46:58;1.98;;;1.60;;
12224;SDS011;6175;50.956;11.064;2023-04-03T11:55:43;3.42;;;1.88;;
12224;SDS011;6175;50.956;11.064;2023-04-03T11:58:13;1.85;;;1.70;;
12224;SDS011;6175;50.956;11.064;2023-04-03T12:00:51;4.38;;;1.75;;
12224;SDS011;6175;50.956;11.064;2023-04-03T12:03:33;2.25;;;1.80;;
12224;SDS011;6175;50.956;11.064;2023-04-03T12:09:27;2.30;;;1.60;;
12224;SDS011;6175;50.956;11.064;2023-04-03T12:12:00;2.65;;;1.30;;
12224;SDS011;6175;50.956;11.064;2023-04-03T12:14:43;4.43;;;1.88;;
12224;SDS011;6175;50.956;11.064;2023-04-03T12:17:12;2.75;;;1.80;;
12224;SDS011;6175;50.956;11.064;2023-04-03T12:19:48;2.25;;;1.52;;
12224;SDS011;6175;50.956;11.064;2023-04-03T12:22:16;1.90;;;1.48;;
12224;SDS011;6175;50.956;11.064;2023-04-03T12:24:47;1.65;;;1.50;;
12224;SDS011;6175;50.956;11.064;2023-04-03T12:27:21;2.10;;;1.55;;
12224;SDS011;6175;50.956;11.064;2023-04-03T12:30:07;3.92;;;2.00;;
12224;SDS011;6175;50.956;11.064;2023-04-03T12:32:56;2.08;;;1.42;;
12224;SDS011;6175;50.956;11.064;2023-04-03T12:35:42;2.70;;;1.40;;
12224;SDS011;6175;50.956;11.064;2023-04-03T12:38:26;2.92;;;1.63;;
12224;SDS011;6175;50.956;11.064;2023-04-03T12:44:11;3.35;;;1.65;;
12224;SDS011;6175;50.956;11.064;2023-04-03T12:46:48;4.32;;;1.50;;
12224;SDS011;6175;50.956;11.064;2023-04-03T12:49:26;2.67;;;1.13;;
12224;SDS011;6175;50.956;11.064;2023-04-03T12:52:00;1.98;;;1.58;;
12224;SDS011;6175;50.956;11.064;2023-04-03T12:54:31;3.30;;;1.75;;
12224;SDS011;6175;50.956;11.064;2023-04-03T12:57:11;2.63;;;1.20;;
12224;SDS011;6175;50.956;11.064;2023-04-03T12:59:38;2.72;;;1.60;;
12224;SDS011;6175;50.956;11.064;2023-04-03T13:02:10;2.45;;;1.50;;
12224;SDS011;6175;50.956;11.064;2023-04-03T13:04:46;1.83;;;1.30;;
12224;SDS011;6175;50.956;11.064;2023-04-03T13:07:21;2.30;;;1.35;;
12224;SDS011;6175;50.956;11.064;2023-04-03T13:10:01;2.53;;;1.42;;
12224;SDS011;6175;50.956;11.064;2023-04-03T13:12:32;1.42;;;1.20;;
12224;SDS011;6175;50.956;11.064;2023-04-03T13:14:59;2.95;;;1.30;;
12224;SDS011;6175;50.956;11.064;2023-04-03T13:17:29;2.47;;;1.30;;
12224;SDS011;6175;50.956;11.064;2023-04-03T13:19:57;1.77;;;1.30;;
12224;SDS011;6175;50.956;11.064;2023-04-03T13:22:38;2.00;;;1.42;;
12224;SDS011;6175;50.956;11.064;2023-04-03T13:25:14;2.30;;;1.30;;
12224;SDS011;6175;50.956;11.064;2023-04-03T13:27:43;3.60;;;1.52;;
12224;SDS011;6175;50.956;11.064;2023-04-03T13:30:27;2.33;;;1.50;;
12224;SDS011;6175;50.956;11.064;2023-04-03T13:32:56;1.92;;;1.42;;
12224;SDS011;6175;50.956;11.064;2023-04-03T13:35:29;4.28;;;1.70;;
12224;SDS011;6175;50.956;11.064;2023-04-03T13:38:01;3.60;;;1.80;;
12224;SDS011;6175;50.956;11.064;2023-04-03T13:40:32;2.08;;;1.70;;
12224;SDS011;6175;50.956;11.064;2023-04-03T13:43:05;3.33;;;1.45;;
12224;SDS011;6175;50.956;11.064;2023-04-03T13:45:52;3.67;;;1.52;;
12224;SDS011;6175;50.956;11.064;2023-04-03T13:48:24;2.22;;;1.65;;
12224;SDS011;6175;50.956;11.064;2023-04-03T13:50:53;3.00;;;1.80;;
12224;SDS011;6175;50.956;11.064;2023-04-03T13:53:25;3.08;;;1.58;;
12224;SDS011;6175;50.956;11.064;2023-04-03T13:56:05;3.28;;;1.73;;
12224;SDS011;6175;50.956;11.064;2023-04-03T13:58:35;2.90;;;1.45;;
12224;SDS011;6175;50.956;11.064;2023-04-03T14:01:09;3.20;;;1.83;;
12224;SDS011;6175;50.956;11.064;2023-04-03T14:03:40;3.03;;;1.73;;
12224;SDS011;6175;50.956;11.064;2023-04-03T14:06:12;2.47;;;1.70;;
12224;SDS011;6175;50.956;11.064;2023-04-03T14:08:42;3.60;;;1.30;;
12224;SDS011;6175;50.956;11.064;2023-04-03T14:11:11;3.45;;;1.77;;
12224;SDS011;6175;50.956;11.064;2023-04-03T14:13:42;1.80;;;1.50;;
12224;SDS011;6175;50.956;11.064;2023-04-03T14:16:12;3.50;;;1.60;;
12224;SDS011;6175;50.956;11.064;2023-04-03T14:18:39;1.95;;;1.35;;
12224;SDS011;6175;50.956;11.064;2023-04-03T14:21:08;2.72;;;1.70;;
12224;SDS011;6175;50.956;11.064;2023-04-03T14:23:36;2.22;;;1.58;;
12224;SDS011;6175;50.956;11.064;2023-04-03T14:26:04;3.58;;;1.83;;
12224;SDS011;6175;50.956;11.064;2023-04-03T14:28:32;3.53;;;1.50;;
12224;SDS011;6175;50.956;11.064;2023-04-03T14:31:00;4.15;;;1.75;;
12224;SDS011;6175;50.956;11.064;2023-04-03T14:33:27;1.60;;;1.40;;
12224;SDS011;6175;50.956;11.064;2023-04-03T14:35:59;3.28;;;1.83;;
12224;SDS011;6175;50.956;11.064;2023-04-03T14:38:28;2.40;;;1.52;;
12224;SDS011;6175;50.956;11.064;2023-04-03T14:40:55;4.35;;;1.70;;
12224;SDS011;6175;50.956;11.064;2023-04-03T14:43:23;2.95;;;1.73;;
12224;SDS011;6175;50.956;11.064;2023-04-03T14:45:51;2.55;;;1.63;;
12224;SDS011;6175;50.956;11.064;2023-04-03T14:48:20;2.20;;;2.00;;
12224;SDS011;6175;50.956;11.064;2023-04-03T14:50:49;2.08;;;1.50;;
12224;SDS011;6175;50.956;11.064;2023-04-03T14:53:16;2.60;;;1.95;;
12224;SDS011;6175;50.956;11.064;2023-04-03T14:55:47;2.05;;;1.58;;
12224;SDS011;6175;50.956;11.064;2023-04-03T14:58:17;1.70;;;1.55;;
12224;SDS011;6175;50.956;11.064;2023-04-03T15:00:45;2.20;;;1.45;;
12224;SDS011;6175;50.956;11.064;2023-04-03T15:03:12;4.43;;;2.13;;
12224;SDS011;6175;50.956;11.064;2023-04-03T15:05:42;2.83;;;1.60;;
12224;SDS011;6175;50.956;11.064;2023-04-03T15:08:18;2.38;;;1.70;;
12224;SDS011;6175;50.956;11.064;2023-04-03T15:10:46;2.90;;;1.67;;
12224;SDS011;6175;50.956;11.064;2023-04-03T15:13:14;2.28;;;1.80;;
12224;SDS011;6175;50.956;11.064;2023-04-03T15:15:42;3.90;;;1.50;;
12224;SDS011;6175;50.956;11.064;2023-04-03T15:18:10;3.92;;;1.70;;
12224;SDS011;6175;50.956;11.064;2023-04-03T15:20:39;3.90;;;2.08;;
12224;SDS011;6175;50.956;11.064;2023-04-03T15:23:09;3.97;;;1.80;;
12224;SDS011;6175;50.956;11.064;2023-04-03T15:25:37;3.72;;;1.80;;